Kezdőlap
METAR-TAF:

METAR-TAF

Repülőterek :

Senjang, Kína

földrajzi szélesség: 41-48N, földrajzi hosszúság: 123-24E, magasság: 35 m

Jelenlegi meteorológiai megfigyelések

A jelentés 37 perccel ezelõtt készült, 15:30 UTC
Nyugat-északnyugati szél 4 kt, nyugat-délnyugati és északnyugati között változik
Hőmérséklet -3°C
Páratartalom 63%
Légköri nyomás 1027 hPa
Látótávolság 10 km, vagy több
Szakadozott felhőzet 3000 lábon

METAR: ZYTX 061530Z 30002MPS 250V320 9999 BKN030 M03/M09 Q1027 NOSIG

Idő: 00:07 (16:07 UTC)

Előrejelzés

A jelentés 8 órával és 59 perccel ezelõtt készült, 07:08 UTC
Az előrejelzés 06-én 12 óra UTC és 07-én 12 óra UTC között érvényes
Délnyugati szél 12 kt
Látótávolság 10 km, vagy több
felhőtlen 1500 m magasságban, és nincs gomolyfelhõ
06-én 15 óra UTC és 06-én 16 óra UTC között fokozatosan kialakuló
Északnyugati szél 10 kt

TAF: ZYTX 060708Z 0612/0712 22006MPS CAVOK TXM04/06Z TNM17/19Z BECMG 0615/0616 32005MPS

Meteorológiai megfigyelések és előrejelzések több, mint 4000 repülőtéren (METAR és TAF jelentéseket).

A térképen piros és sárga pontok jelzik az elérhető meteorológiai állomásokat.

Mozgassa az egeret a pont fölött, hogy megjelenjen az állomás neve.

Azután kattintson az időjárási megfigyelések és előrejelzések megtekintéséhez.

A térkép megváltoztatása: kattintson a fekete keresztel jelölt zöld gombra ráközelítéshez, a vonallal jelölt zöld gombra távolításhoz, vagy a zöld nyilakra a szomszédos térképek eléréséhez.


METAR-TAF: